Time;durP1;ratioP1;P1;durP2;ratioP2;P2;SDS_P1;SDS_P2;PMS_P1;PMS_P2;Temp;Humidity;BMP_temperature;BMP_pressure;BME280_temperature;BME280_humidity;BME280_pressure;Samples;Min_cycle;Max_cycle;Signal;HPM_P1;HPM_P2
2023/08/23 00:00:32;;;;;;;2.40;1.17;;;;;;;12.39;100.00;101927.38;1046959;28;20041;-54
2023/08/23 00:01:36;;;;;;;1.95;1.08;;;;;;;12.34;100.00;101919.13;1047891;28;20174;-54
2023/08/23 00:02:21;;;;;;;1.20;1.00;;;;;;;12.24;100.00;101913.31;1047041;28;20486;-53
2023/08/23 00:03:11;;;;;;;1.80;0.73;;;;;;;12.28;100.00;101919.91;1047537;28;20625;-53
2023/08/23 00:03:47;;;;;;;2.90;0.95;;;;;;;12.24;100.00;101911.47;1043589;28;20045;-55
2023/08/23 00:04:29;;;;;;;2.45;1.33;;;;;;;12.20;100.00;101912.91;1044068;28;20047;-54
2023/08/23 00:05:05;;;;;;;5.22;0.85;;;;;;;12.34;100.00;101913.78;1048825;28;20100;-53
2023/08/23 00:05:57;;;;;;;1.23;0.88;;;;;;;12.37;100.00;101911.53;1032911;28;20081;-55
2023/08/23 00:06:32;;;;;;;4.72;1.17;;;;;;;12.42;100.00;101921.63;1028749;28;20038;-54
2023/08/23 00:07:04;;;;;;;1.48;1.20;;;;;;;12.47;100.00;101912.97;1047517;28;20047;-55
2023/08/23 00:07:36;;;;;;;2.80;0.98;;;;;;;12.38;100.00;101915.03;1047564;28;20037;-54
2023/08/23 00:08:18;;;;;;;1.17;1.08;;;;;;;12.39;100.00;101916.69;1047842;28;20067;-54
2023/08/23 00:09:00;;;;;;;1.83;1.02;;;;;;;12.67;100.00;101914.69;1047954;28;20049;-53
2023/08/23 00:09:46;;;;;;;1.35;1.00;;;;;;;12.93;100.00;101913.06;1043046;28;20045;-54
2023/08/23 00:10:21;;;;;;;1.00;1.00;;;;;;;13.00;100.00;101908.53;1036479;28;20050;-55
2023/08/23 00:11:07;;;;;;;1.02;0.90;;;;;;;12.74;100.00;101908.50;1032732;28;20146;-55
2023/08/23 00:11:50;;;;;;;3.78;1.08;;;;;;;12.63;100.00;101913.44;1035007;28;20136;-55
2023/08/23 00:12:39;;;;;;;2.92;0.90;;;;;;;12.58;100.00;101910.53;1037383;28;20042;-55
2023/08/23 00:13:22;;;;;;;5.75;1.23;;;;;;;12.67;100.00;101908.50;1040081;28;20621;-53
2023/08/23 00:14:17;;;;;;;1.20;0.80;;;;;;;12.66;100.00;101912.22;1039078;28;20204;-53
2023/08/23 00:14:49;;;;;;;0.93;0.85;;;;;;;12.60;100.00;101913.84;1043227;28;20578;-55
2023/08/23 00:15:24;;;;;;;4.57;1.02;;;;;;;12.69;100.00;101912.63;1048135;28;20044;-53
2023/08/23 00:15:56;;;;;;;2.08;1.27;;;;;;;12.64;100.00;101917.75;1047112;28;20051;-55
2023/08/23 00:16:35;;;;;;;0.80;0.80;;;;;;;12.65;100.00;101911.38;1048467;28;20079;-53
2023/08/23 00:17:07;;;;;;;11.13;2.47;;;;;;;12.69;100.00;101923.31;1047647;28;20378;-53
2023/08/23 00:17:39;;;;;;;10.65;1.33;;;;;;;13.03;100.00;101918.81;1048301;28;20049;-53
2023/08/23 00:18:17;;;;;;;6.47;1.50;;;;;;;13.08;100.00;101913.66;1047507;28;20048;-54
2023/08/23 00:18:55;;;;;;;13.70;2.92;;;;;;;13.15;100.00;101917.19;1048560;28;20044;-54
2023/08/23 00:19:46;;;;;;;11.98;1.75;;;;;;;13.04;100.00;101912.44;1048604;28;20499;-52
2023/08/23 00:20:30;;;;;;;8.27;1.88;;;;;;;13.07;100.00;101917.34;1048267;28;20574;-55
2023/08/23 00:21:03;;;;;;;15.00;1.38;;;;;;;12.97;100.00;101914.28;1047997;28;20040;-53
2023/08/23 00:21:37;;;;;;;11.07;1.80;;;;;;;12.88;100.00;101916.34;1048210;28;20060;-55
2023/08/23 00:22:35;;;;;;;7.22;1.60;;;;;;;13.01;100.00;101907.50;1032986;28;20065;-55
2023/08/23 00:23:20;;;;;;;10.40;1.95;;;;;;;13.05;100.00;101914.06;1044762;28;20049;-55
2023/08/23 00:23:54;;;;;;;10.02;1.48;;;;;;;12.90;100.00;101913.47;1040580;28;20045;-55
2023/08/23 00:24:29;;;;;;;4.68;1.50;;;;;;;12.82;100.00;101911.78;1037305;28;20065;-53
2023/08/23 00:25:09;;;;;;;8.13;1.27;;;;;;;12.83;100.00;101915.28;1041721;28;20404;-55
2023/08/23 00:25:49;;;;;;;13.27;1.48;;;;;;;13.05;100.00;101908.72;1044810;28;20465;-55
2023/08/23 00:26:35;;;;;;;7.20;1.40;;;;;;;13.10;100.00;101900.91;1022319;29;20070;-53
2023/08/23 00:27:11;;;;;;;9.13;1.65;;;;;;;12.97;100.00;101914.28;1037834;28;20045;-54
2023/08/23 00:27:49;;;;;;;8.63;2.35;;;;;;;12.75;100.00;101902.13;1034917;28;20045;-54
2023/08/23 00:28:48;;;;;;;7.38;1.55;;;;;;;12.59;100.00;101906.81;1040663;28;20416;-54
2023/08/23 00:29:21;;;;;;;10.05;1.80;;;;;;;12.52;100.00;101899.84;1049095;28;20068;-55
2023/08/23 00:29:59;;;;;;;6.05;1.73;;;;;;;12.57;100.00;101903.53;1049507;28;20041;-54
2023/08/23 00:31:17;;;;;;;9.13;2.03;;;;;;;12.49;100.00;101902.91;1049867;28;20045;-54
2023/08/23 00:32:06;;;;;;;6.30;1.25;;;;;;;12.37;100.00;101908.88;1048056;28;20041;-52
2023/08/23 00:32:52;;;;;;;5.35;1.50;;;;;;;12.33;100.00;101890.78;1043915;28;20060;-55
2023/08/23 00:33:36;;;;;;;7.80;1.00;;;;;;;12.33;100.00;101912.16;1047101;28;20190;-54
2023/08/23 00:34:18;;;;;;;12.68;2.42;;;;;;;12.30;100.00;101899.97;1046989;28;20091;-52
2023/08/23 00:34:53;;;;;;;4.88;1.20;;;;;;;12.23;100.00;101907.16;1050423;28;20115;-54
2023/08/23 00:35:35;;;;;;;8.55;1.25;;;;;;;12.22;100.00;101899.34;1053808;28;20044;-55
2023/08/23 00:36:11;;;;;;;9.85;1.20;;;;;;;12.19;100.00;101897.09;1050246;28;20063;-55
2023/08/23 00:36:46;;;;;;;6.80;1.67;;;;;;;12.25;100.00;101896.28;1048460;28;20041;-55
2023/08/23 00:37:20;;;;;;;2.65;0.95;;;;;;;12.38;100.00;101899.00;1045778;28;20506;-54
2023/08/23 00:37:52;;;;;;;5.70;1.48;;;;;;;12.35;100.00;101894.06;1048107;28;20038;-55
2023/08/23 00:38:35;;;;;;;11.70;1.10;;;;;;;12.38;100.00;101890.97;1047872;28;20052;-54
2023/08/23 00:39:16;;;;;;;4.57;1.50;;;;;;;12.29;100.00;101901.00;1049998;28;20032;-54
2023/08/23 00:40:22;;;;;;;7.65;1.40;;;;;;;12.21;100.00;101906.53;1047903;28;20099;-52
2023/08/23 00:41:01;;;;;;;5.30;0.95;;;;;;;12.13;100.00;101903.25;1050607;28;20040;-53
2023/08/23 00:41:59;;;;;;;4.95;2.20;;;;;;;12.13;100.00;101897.91;1042203;28;20055;-53
2023/08/23 00:42:35;;;;;;;3.97;1.30;;;;;;;12.18;100.00;101906.13;1039873;28;20112;-54
2023/08/23 00:43:09;;;;;;;9.25;1.70;;;;;;;12.13;100.00;101911.25;1040596;28;20037;-53
2023/08/23 00:43:41;;;;;;;19.55;3.03;;;;;;;12.09;100.00;101904.66;1045849;28;20575;-54
2023/08/23 00:44:15;;;;;;;10.70;2.22;;;;;;;12.01;100.00;101902.97;1048771;28;20040;-55
2023/08/23 00:45:05;;;;;;;5.90;1.58;;;;;;;12.01;100.00;101903.78;1043306;28;20511;-52
2023/08/23 00:45:38;;;;;;;21.55;2.30;;;;;;;11.84;100.00;101897.16;1038724;28;20042;-55
2023/08/23 00:46:19;;;;;;;16.60;2.10;;;;;;;11.71;100.00;101891.72;1035892;28;20400;-55
2023/08/23 00:47:06;;;;;;;12.45;1.77;;;;;;;11.69;100.00;101893.75;1044454;28;20044;-53
2023/08/23 00:47:56;;;;;;;16.02;2.08;;;;;;;11.58;100.00;101892.47;1049514;28;20340;-53
2023/08/23 00:48:41;;;;;;;10.98;2.88;;;;;;;11.69;100.00;101893.75;1048477;28;20078;-54
2023/08/23 00:49:20;;;;;;;5.40;1.60;;;;;;;11.77;100.00;101893.59;1044008;28;20163;-55
2023/08/23 00:49:52;;;;;;;6.30;1.65;;;;;;;11.52;100.00;101897.78;1043968;28;20499;-55
2023/08/23 00:51:28;;;;;;;6.28;1.63;;;;;;;11.34;100.00;101896.44;1040139;28;20105;-55
2023/08/23 00:52:07;;;;;;;10.40;2.15;;;;;;;11.28;100.00;101894.56;1045507;28;20057;-55
2023/08/23 00:52:42;;;;;;;6.38;1.52;;;;;;;11.23;100.00;101897.00;1046418;28;20098;-55
2023/08/23 00:53:26;;;;;;;14.68;1.70;;;;;;;11.30;100.00;101892.53;1042456;28;20045;-54
2023/08/23 00:54:00;;;;;;;7.30;1.75;;;;;;;11.33;100.00;101894.78;1039515;28;20420;-55
2023/08/23 00:54:37;;;;;;;2.88;1.17;;;;;;;11.48;100.00;101896.50;1043555;28;20699;-55
2023/08/23 00:55:09;;;;;;;4.47;1.42;;;;;;;11.62;100.00;101895.59;1040799;28;20045;-55
2023/08/23 00:55:55;;;;;;;8.35;1.63;;;;;;;11.43;100.00;101900.59;1041375;28;20518;-55
2023/08/23 00:56:29;;;;;;;5.97;1.65;;;;;;;11.63;100.00;101900.72;1039580;28;20124;-54
2023/08/23 00:57:01;;;;;;;3.88;1.35;;;;;;;11.68;100.00;101908.13;1033731;28;20054;-54
2023/08/23 00:57:33;;;;;;;2.58;1.73;;;;;;;11.74;100.00;101907.34;1035820;28;20053;-53
2023/08/23 00:58:18;;;;;;;5.75;1.73;;;;;;;11.76;100.00;101900.78;1041617;28;20124;-54
2023/08/23 00:58:52;;;;;;;4.05;1.70;;;;;;;11.89;100.00;101905.41;1043771;28;20048;-55
2023/08/23 00:59:32;;;;;;;16.17;3.05;;;;;;;12.17;100.00;101909.81;1049867;28;20078;-54
2023/08/23 01:00:14;;;;;;;4.03;1.83;;;;;;;11.93;100.00;101901.31;1047847;28;20406;-53
2023/08/23 01:00:50;;;;;;;2.33;1.25;;;;;;;11.91;100.00;101892.66;1049593;28;20032;-53
2023/08/23 01:01:25;;;;;;;1.58;1.17;;;;;;;11.90;100.00;101896.38;1048861;28;20043;-53
2023/08/23 01:01:59;;;;;;;1.45;1.35;;;;;;;11.94;100.00;101896.78;1047731;28;20049;-50
2023/08/23 01:02:36;;;;;;;5.25;1.63;;;;;;;12.05;100.00;101901.53;1048751;28;20056;-59
2023/08/23 01:03:10;;;;;;;3.10;1.58;;;;;;;12.13;100.00;101892.56;1049516;28;20348;-52
2023/08/23 01:03:42;;;;;;;6.55;1.20;;;;;;;12.24;100.00;101891.97;1045651;28;20079;-53
2023/08/23 01:04:29;;;;;;;4.82;1.50;;;;;;;12.48;100.00;101899.41;1048405;28;20483;-55
2023/08/23 01:05:05;;;;;;;2.20;1.27;;;;;;;12.63;100.00;101904.59;1048552;28;20123;-55
2023/08/23 01:05:51;;;;;;;6.00;1.50;;;;;;;12.62;100.00;101902.94;1048504;28;20045;-53
2023/08/23 01:06:45;;;;;;;9.45;1.83;;;;;;;12.37;100.00;101897.34;1047454;28;20097;-54
2023/08/23 01:07:27;;;;;;;2.70;1.35;;;;;;;12.20;100.00;101896.06;1046565;28;20399;-53
2023/08/23 01:08:27;;;;;;;7.15;1.20;;;;;;;12.29;100.00;101902.84;1044680;28;20080;-53
2023/08/23 01:09:42;;;;;;;5.32;1.20;;;;;;;12.24;100.00;101891.97;1044236;28;20179;-55
2023/08/23 01:10:19;;;;;;;3.95;1.27;;;;;;;11.83;100.00;101895.53;1048921;28;20059;-53
2023/08/23 01:11:02;;;;;;;6.40;1.60;;;;;;;11.84;100.00;101894.50;1045328;28;20122;-55
2023/08/23 01:11:59;;;;;;;1.48;1.38;;;;;;;12.25;100.00;101894.44;1044670;28;20041;-54
2023/08/23 01:13:00;;;;;;;3.85;1.00;;;;;;;12.56;100.00;101896.53;1047394;28;20045;-53
2023/08/23 01:13:38;;;;;;;1.63;1.00;;;;;;;12.69;100.00;101896.59;1038651;28;20042;-55
2023/08/23 01:14:23;;;;;;;2.38;1.10;;;;;;;12.73;100.00;101896.16;1040533;28;20046;-53
2023/08/23 01:15:07;;;;;;;6.05;1.48;;;;;;;12.15;100.00;101898.50;1039645;28;20288;-53
2023/08/23 01:15:47;;;;;;;1.98;1.23;;;;;;;12.11;100.00;101890.09;1047957;28;20521;-53
2023/08/23 01:16:20;;;;;;;2.42;1.38;;;;;;;11.90;100.00;101888.34;1047546;28;20048;-53
2023/08/23 01:16:54;;;;;;;2.75;1.38;;;;;;;11.94;100.00;101900.28;1048349;28;20041;-53
2023/08/23 01:17:41;;;;;;;8.15;1.55;;;;;;;11.82;100.00;101896.53;1047166;28;20507;-54
2023/08/23 01:18:14;;;;;;;5.55;1.80;;;;;;;11.61;100.00;101892.09;1048727;28;20056;-55
2023/08/23 01:18:46;;;;;;;1.92;1.35;;;;;;;11.61;100.00;101892.09;1048204;28;20036;-55
2023/08/23 01:19:39;;;;;;;1.45;1.35;;;;;;;11.61;100.00;101891.25;1038740;28;20049;-55
2023/08/23 01:20:15;;;;;;;1.88;1.33;;;;;;;11.59;100.00;101893.31;1043047;28;20096;-53
2023/08/23 01:20:49;;;;;;;2.00;1.45;;;;;;;11.74;100.00;101897.47;1040144;28;20053;-54
2023/08/23 01:21:42;;;;;;;1.83;1.45;;;;;;;11.68;100.00;101892.13;1045707;28;20063;-52
2023/08/23 01:22:19;;;;;;;1.50;1.40;;;;;;;11.46;100.00;101894.88;1042444;28;20435;-52
2023/08/23 01:23:12;;;;;;;1.52;1.38;;;;;;;11.56;100.00;101893.72;1048101;28;20648;-54
2023/08/23 01:24:08;;;;;;;2.25;1.30;;;;;;;11.35;100.00;101887.41;1047705;28;20043;-55
2023/08/23 01:24:50;;;;;;;4.13;1.80;;;;;;;11.30;100.00;101889.84;1048087;28;20048;-54
2023/08/23 01:25:26;;;;;;;1.08;0.98;;;;;;;11.20;100.00;101886.69;1042802;28;20052;-53
2023/08/23 01:26:08;;;;;;;1.83;1.15;;;;;;;11.08;100.00;101888.25;1044701;28;20044;-53
2023/08/23 01:26:40;;;;;;;1.20;1.10;;;;;;;11.17;100.00;101889.75;1047845;28;20056;-53
2023/08/23 01:27:28;;;;;;;1.10;1.08;;;;;;;11.29;100.00;101898.88;1049184;28;20044;-54
2023/08/23 01:28:20;;;;;;;1.75;0.90;;;;;;;11.41;100.00;101894.63;1048286;28;20132;-55
2023/08/23 01:28:52;;;;;;;2.58;1.33;;;;;;;11.36;100.00;101894.41;1047574;28;20322;-55
2023/08/23 01:29:52;;;;;;;6.25;1.20;;;;;;;11.22;100.00;101897.97;1049342;28;20077;-54
2023/08/23 01:30:30;;;;;;;1.17;1.08;;;;;;;11.27;100.00;101889.41;1047761;28;20085;-53
2023/08/23 01:31:07;;;;;;;3.38;1.23;;;;;;;11.29;100.00;101890.06;1047904;28;20340;-52
2023/08/23 01:31:49;;;;;;;1.00;0.90;;;;;;;11.42;100.00;101892.78;1044236;28;20521;-53
2023/08/23 01:32:58;;;;;;;2.75;1.30;;;;;;;11.54;100.00;101893.09;1047855;28;20064;-53
2023/08/23 01:33:37;;;;;;;4.10;1.02;;;;;;;11.59;100.00;101898.66;1046440;28;20295;-53
2023/08/23 01:34:24;;;;;;;1.95;1.40;;;;;;;11.61;100.00;101896.59;1044180;28;20303;-53
2023/08/23 01:35:21;;;;;;;1.70;1.00;;;;;;;11.70;100.00;101895.41;1042035;28;20082;-55
2023/08/23 01:36:24;;;;;;;1.45;1.27;;;;;;;11.48;100.00;101899.19;1043624;28;20090;-52
2023/08/23 01:37:01;;;;;;;2.35;0.90;;;;;;;11.45;100.00;101897.72;1046919;28;20610;-53
2023/08/23 01:37:38;;;;;;;1.67;0.93;;;;;;;11.42;100.00;101898.94;1047772;28;20550;-54
2023/08/23 01:38:15;;;;;;;1.92;1.55;;;;;;;11.32;100.00;101898.47;1048806;28;20047;-54
2023/08/23 01:38:53;;;;;;;1.80;1.38;;;;;;;11.38;100.00;101897.69;1048112;28;20041;-54
2023/08/23 01:39:42;;;;;;;1.25;0.98;;;;;;;11.46;100.00;101894.88;1049661;28;20506;-52
2023/08/23 01:40:17;;;;;;;3.70;1.25;;;;;;;11.36;100.00;101899.72;1049041;28;20049;-55
2023/08/23 01:40:49;;;;;;;2.78;1.27;;;;;;;11.33;100.00;101897.47;1048408;28;20044;-55
2023/08/23 01:41:21;;;;;;;4.00;1.00;;;;;;;11.37;100.00;101890.72;1046155;28;20170;-55
2023/08/23 01:41:55;;;;;;;1.55;1.45;;;;;;;11.34;100.00;101895.63;1048596;28;20514;-53
2023/08/23 01:42:45;;;;;;;2.38;1.05;;;;;;;11.30;100.00;101883.69;1049331;28;20064;-53
2023/08/23 01:43:20;;;;;;;2.22;1.15;;;;;;;11.43;100.00;101892.59;1046778;28;20041;-54
2023/08/23 01:43:57;;;;;;;1.23;1.13;;;;;;;11.39;100.00;101894.00;1045931;28;20418;-53
2023/08/23 01:44:29;;;;;;;2.08;1.02;;;;;;;11.46;100.00;101894.03;1048172;28;20048;-55
2023/08/23 01:45:02;;;;;;;2.42;2.22;;;;;;;11.57;100.00;101890.00;1048291;28;20120;-53
2023/08/23 01:45:34;;;;;;;1.75;1.48;;;;;;;11.56;100.00;101897.19;1048262;28;20039;-53
2023/08/23 01:46:05;;;;;;;2.47;1.38;;;;;;;11.60;100.00;101894.97;1048180;28;20036;-53
2023/08/23 01:46:38;;;;;;;2.92;1.27;;;;;;;11.52;100.00;101895.13;1048331;28;20114;-53
2023/08/23 01:47:22;;;;;;;3.70;2.05;;;;;;;11.42;100.00;101888.28;1048853;28;20043;-52
2023/08/23 01:47:57;;;;;;;6.38;1.90;;;;;;;11.41;100.00;101899.97;1047942;28;20410;-55
2023/08/23 01:48:35;;;;;;;1.55;1.20;;;;;;;11.48;100.00;101896.50;1049809;28;20048;-52
2023/08/23 01:49:34;;;;;;;1.75;1.15;;;;;;;11.89;100.00;101889.38;1049088;28;20459;-55
2023/08/23 01:50:14;;;;;;;3.28;1.30;;;;;;;12.02;100.00;101888.59;1049143;28;20048;-53
2023/08/23 01:50:55;;;;;;;1.48;1.38;;;;;;;11.73;100.00;101895.84;1047447;28;20037;-52
2023/08/23 01:51:32;;;;;;;3.03;1.55;;;;;;;11.74;100.00;101894.00;1047994;28;20118;-55
2023/08/23 01:52:06;;;;;;;2.22;1.50;;;;;;;11.76;100.00;101889.28;1047945;28;20143;-55
2023/08/23 01:52:41;;;;;;;2.15;1.58;;;;;;;11.82;100.00;101887.72;1047724;28;20095;-55
2023/08/23 01:53:15;;;;;;;7.40;1.60;;;;;;;11.75;100.00;101882.28;1048044;28;20135;-54
2023/08/23 01:53:47;;;;;;;2.22;1.60;;;;;;;11.59;100.00;101888.78;1048573;28;20056;-55
2023/08/23 01:54:19;;;;;;;6.65;1.95;;;;;;;11.69;100.00;101888.44;1047981;28;20044;-54
2023/08/23 01:54:50;;;;;;;2.40;1.67;;;;;;;11.68;100.00;101887.59;1047968;28;20044;-53
2023/08/23 01:55:23;;;;;;;1.50;1.33;;;;;;;11.66;100.00;101880.81;1048268;28;20454;-55
2023/08/23 01:55:55;;;;;;;1.70;1.60;;;;;;;11.70;100.00;101890.06;1047826;28;20036;-55
2023/08/23 01:56:27;;;;;;;1.60;1.40;;;;;;;11.68;100.00;101884.94;1047628;28;20051;-55
2023/08/23 01:57:05;;;;;;;1.73;1.42;;;;;;;11.85;100.00;101889.97;1048100;28;20036;-53
2023/08/23 01:57:47;;;;;;;1.55;1.40;;;;;;;11.70;100.00;101885.56;1047902;28;20037;-54
2023/08/23 01:58:25;;;;;;;1.60;1.20;;;;;;;11.59;100.00;101890.63;1046807;28;20404;-54
2023/08/23 01:59:01;;;;;;;3.17;2.58;;;;;;;11.55;100.00;101892.06;1047734;28;20041;-55
2023/08/23 01:59:49;;;;;;;3.35;1.52;;;;;;;11.45;100.00;101890.53;1047619;28;20510;-55
2023/08/23 02:00:34;;;;;;;1.50;1.20;;;;;;;11.50;100.00;101889.94;1045273;28;20037;-54
2023/08/23 02:01:12;;;;;;;3.65;1.17;;;;;;;11.62;100.00;101882.25;1046313;28;20051;-53
2023/08/23 02:02:07;;;;;;;3.40;1.60;;;;;;;11.54;100.00;101885.06;1049726;28;20028;-53
2023/08/23 02:02:40;;;;;;;2.45;1.23;;;;;;;11.85;100.00;101879.31;1048570;28;20135;-54
2023/08/23 02:03:23;;;;;;;1.85;1.30;;;;;;;12.06;100.00;101884.53;1043466;28;20116;-53
2023/08/23 02:03:55;;;;;;;1.63;1.52;;;;;;;11.81;100.00;101886.06;1043919;28;20041;-53
2023/08/23 02:04:28;;;;;;;2.95;1.30;;;;;;;11.92;100.00;101877.47;1046108;28;20040;-52
2023/08/23 02:05:18;;;;;;;1.58;1.48;;;;;;;11.99;100.00;101887.16;1048283;28;20529;-53
2023/08/23 02:05:59;;;;;;;3.88;1.20;;;;;;;12.02;100.00;101884.06;1048199;28;20568;-55
2023/08/23 02:06:31;;;;;;;2.47;2.15;;;;;;;12.11;100.00;101881.25;1043894;28;20041;-55
2023/08/23 02:07:03;;;;;;;3.80;1.92;;;;;;;12.04;100.00;101882.03;1043972;28;20129;-54
2023/08/23 02:07:35;;;;;;;3.63;1.40;;;;;;;11.94;100.00;101881.59;1043158;28;20096;-55
2023/08/23 02:08:07;;;;;;;2.95;1.45;;;;;;;11.75;100.00;101884.97;1044186;28;20047;-54
2023/08/23 02:08:39;;;;;;;1.35;1.25;;;;;;;11.66;100.00;101886.16;1047766;28;20411;-55
2023/08/23 02:09:16;;;;;;;2.25;1.65;;;;;;;11.66;100.00;101880.81;1044154;28;20064;-55
2023/08/23 02:10:02;;;;;;;2.78;1.42;;;;;;;11.87;100.00;101885.25;1042318;28;20064;-53
2023/08/23 02:10:44;;;;;;;2.90;1.60;;;;;;;11.94;100.00;101881.59;1045659;28;20048;-54
2023/08/23 02:11:22;;;;;;;1.50;1.40;;;;;;;11.94;100.00;101881.59;1045366;28;20041;-54
2023/08/23 02:12:02;;;;;;;1.30;1.20;;;;;;;11.71;100.00;101875.69;1042900;28;20053;-55
2023/08/23 02:12:33;;;;;;;1.52;1.40;;;;;;;11.63;100.00;101878.53;1043161;28;20485;-55
2023/08/23 02:13:06;;;;;;;2.60;1.85;;;;;;;11.61;100.00;101880.59;1045839;28;20506;-55
2023/08/23 02:13:38;;;;;;;1.60;1.50;;;;;;;11.63;100.00;101873.22;1048211;28;20114;-53
2023/08/23 02:14:10;;;;;;;1.90;1.05;;;;;;;11.75;100.00;101884.97;1048409;28;20052;-54
2023/08/23 02:14:44;;;;;;;5.03;1.50;;;;;;;11.74;100.00;101880.63;1047399;28;20048;-54
2023/08/23 02:15:16;;;;;;;3.97;1.67;;;;;;;11.76;100.00;101884.75;1047616;28;20169;-53
2023/08/23 02:15:48;;;;;;;3.38;1.60;;;;;;;11.55;100.00;101876.03;1047626;28;20032;-53
2023/08/23 02:16:19;;;;;;;3.90;1.55;;;;;;;11.56;100.00;101877.69;1047719;28;20048;-53
2023/08/23 02:16:51;;;;;;;1.23;1.15;;;;;;;11.49;100.00;101876.81;1047991;28;20047;-53
2023/08/23 02:17:22;;;;;;;1.73;1.63;;;;;;;11.55;100.00;101881.38;1045241;28;20131;-55
2023/08/23 02:17:54;;;;;;;2.35;1.42;;;;;;;11.66;100.00;101883.47;1047957;28;20166;-55
2023/08/23 02:18:26;;;;;;;5.97;1.60;;;;;;;11.64;100.00;101885.53;1047614;28;20040;-55
2023/08/23 02:18:57;;;;;;;2.15;1.52;;;;;;;11.70;100.00;101876.72;1047393;28;20041;-54
2023/08/23 02:19:29;;;;;;;1.58;1.48;;;;;;;11.67;100.00;101877.94;1048186;28;20045;-54
2023/08/23 02:20:01;;;;;;;1.15;1.05;;;;;;;11.68;100.00;101882.25;1048929;28;20070;-54
2023/08/23 02:20:32;;;;;;;1.85;1.10;;;;;;;11.67;100.00;101877.94;1047559;28;20040;-54
2023/08/23 02:21:04;;;;;;;1.38;1.08;;;;;;;11.79;100.00;101883.59;1049161;28;20603;-53
2023/08/23 02:21:39;;;;;;;4.20;1.38;;;;;;;11.75;100.00;101887.63;1052781;28;20048;-55
2023/08/23 02:22:11;;;;;;;2.90;1.02;;;;;;;11.55;100.00;101886.72;1047799;28;20076;-53
2023/08/23 02:22:42;;;;;;;1.50;1.35;;;;;;;11.54;100.00;101879.75;1047894;28;20182;-53
2023/08/23 02:23:14;;;;;;;1.40;1.23;;;;;;;11.58;100.00;101886.31;1048029;28;20047;-53
2023/08/23 02:23:46;;;;;;;1.17;1.13;;;;;;;11.57;100.00;101888.16;1045542;28;20040;-53
2023/08/23 02:24:18;;;;;;;2.08;1.08;;;;;;;11.67;100.00;101885.13;1047878;28;20044;-52
2023/08/23 02:24:50;;;;;;;2.00;1.80;;;;;;;11.64;100.00;101880.19;1048040;28;20612;-54
2023/08/23 02:25:21;;;;;;;1.70;1.50;;;;;;;11.73;100.00;101879.00;1043854;28;20052;-55
2023/08/23 02:25:53;;;;;;;1.67;1.40;;;;;;;11.58;100.00;101886.31;1044227;28;20045;-54
2023/08/23 02:26:25;;;;;;;1.50;1.40;;;;;;;11.38;100.00;101887.03;1047990;28;20123;-53
2023/08/23 02:26:56;;;;;;;1.77;1.20;;;;;;;11.49;100.00;101887.47;1047932;28;20123;-51
2023/08/23 02:27:28;;;;;;;1.90;1.75;;;;;;;11.74;100.00;101883.31;1047653;28;20406;-53
2023/08/23 02:27:59;;;;;;;2.10;1.92;;;;;;;11.91;100.00;101881.16;1048648;28;20036;-55
2023/08/23 02:28:31;;;;;;;8.60;1.55;;;;;;;11.93;100.00;101885.28;1048152;28;20049;-55
2023/08/23 02:29:03;;;;;;;1.50;1.40;;;;;;;11.98;100.00;101882.00;1047797;28;20122;-55
2023/08/23 02:29:34;;;;;;;1.70;1.35;;;;;;;11.83;100.00;101884.84;1048074;28;20198;-54
2023/08/23 02:30:09;;;;;;;2.10;1.50;;;;;;;11.83;100.00;101879.50;1048920;28;20042;-54
2023/08/23 02:30:41;;;;;;;1.67;1.38;;;;;;;11.90;100.00;101877.69;1047769;28;20406;-52
2023/08/23 02:31:13;;;;;;;3.42;1.40;;;;;;;11.59;100.00;101872.78;1048024;28;20040;-54
2023/08/23 02:31:44;;;;;;;5.47;1.70;;;;;;;11.63;100.00;101874.03;1045431;28;20048;-53
2023/08/23 02:32:16;;;;;;;1.83;1.55;;;;;;;11.65;100.00;101879.16;1047390;28;20048;-53
2023/08/23 02:32:48;;;;;;;2.17;1.58;;;;;;;11.63;100.00;101878.53;1047618;28;20041;-52
2023/08/23 02:33:19;;;;;;;3.47;2.03;;;;;;;11.55;100.00;101870.72;1048155;28;20614;-53
2023/08/23 02:33:51;;;;;;;7.00;1.35;;;;;;;11.28;100.00;101878.56;1044048;28;20048;-52
2023/08/23 02:34:23;;;;;;;10.77;3.25;;;;;;;11.31;100.00;101870.16;1043262;28;20175;-52
2023/08/23 02:34:55;;;;;;;1.83;1.67;;;;;;;11.25;100.00;101876.28;1048729;28;20415;-55
2023/08/23 02:35:26;;;;;;;1.98;1.42;;;;;;;11.16;100.00;101877.44;1047368;28;20055;-55
2023/08/23 02:35:58;;;;;;;1.83;1.73;;;;;;;11.30;100.00;101876.50;1047926;28;21336;-55
2023/08/23 02:36:30;;;;;;;18.00;3.20;;;;;;;11.18;100.00;101870.06;1048754;28;20037;-54
2023/08/23 02:37:02;;;;;;;1.20;1.10;;;;;;;11.16;100.00;101880.09;1048013;28;20478;-55
2023/08/23 02:37:34;;;;;;;2.38;1.48;;;;;;;11.27;100.00;101876.91;1047987;28;20554;-55
2023/08/23 02:38:08;;;;;;;3.05;1.15;;;;;;;11.18;100.00;101875.38;1047840;28;20079;-54
2023/08/23 02:38:39;;;;;;;1.50;1.33;;;;;;;11.36;100.00;101878.41;1047763;28;20525;-55
2023/08/23 02:39:12;;;;;;;1.80;1.63;;;;;;;11.39;100.00;101878.00;1046813;28;20115;-55
2023/08/23 02:39:43;;;;;;;6.72;2.35;;;;;;;11.42;100.00;101876.78;1047981;28;20044;-54
2023/08/23 02:40:15;;;;;;;2.17;1.67;;;;;;;11.44;100.00;101874.75;1048877;28;20041;-53
2023/08/23 02:40:47;;;;;;;2.33;1.73;;;;;;;11.36;100.00;101873.06;1048224;28;20182;-55
2023/08/23 02:41:19;;;;;;;7.93;1.65;;;;;;;11.34;100.00;101875.09;1047974;28;20059;-54
2023/08/23 02:41:51;;;;;;;4.80;1.73;;;;;;;11.36;100.00;101873.06;1048049;28;20036;-54
2023/08/23 02:42:22;;;;;;;1.00;1.00;;;;;;;11.37;100.00;101868.53;1048599;28;20047;-55
2023/08/23 02:42:55;;;;;;;6.00;2.08;;;;;;;11.31;100.00;101875.50;1047961;28;20040;-53
2023/08/23 02:43:28;;;;;;;1.50;1.40;;;;;;;11.33;100.00;101873.44;1047863;28;20037;-53
2023/08/23 02:44:03;;;;;;;4.88;1.13;;;;;;;11.33;100.00;101870.78;1048066;28;20406;-54
2023/08/23 02:44:37;;;;;;;1.60;1.50;;;;;;;11.26;100.00;101867.25;1048375;28;20053;-52
2023/08/23 02:45:09;;;;;;;3.50;1.88;;;;;;;11.15;100.00;101868.59;1047744;28;20049;-52
2023/08/23 02:45:42;;;;;;;1.27;1.17;;;;;;;11.19;100.00;101871.69;1043000;28;20045;-52
2023/08/23 02:46:14;;;;;;;2.47;1.13;;;;;;;11.33;100.00;101877.97;1042791;28;20047;-53
2023/08/23 02:46:45;;;;;;;3.17;1.25;;;;;;;11.21;100.00;101872.34;1045387;28;20052;-53
2023/08/23 02:47:17;;;;;;;1.40;1.20;;;;;;;11.09;100.00;101871.22;1047348;28;20032;-53
2023/08/23 02:47:49;;;;;;;3.47;1.27;;;;;;;11.04;100.00;101863.00;1047782;28;20048;-52
2023/08/23 02:48:23;;;;;;;2.08;1.58;;;;;;;11.15;100.00;101865.13;1047364;28;20064;-53
2023/08/23 02:48:55;;;;;;;3.20;1.27;;;;;;;11.17;100.00;101867.59;1047536;28;20037;-52
2023/08/23 02:49:26;;;;;;;2.03;1.35;;;;;;;11.12;100.00;101868.19;1043244;28;20052;-52
2023/08/23 02:49:58;;;;;;;3.65;1.55;;;;;;;11.02;100.00;101865.03;1043885;28;20094;-55
2023/08/23 02:50:29;;;;;;;1.83;0.85;;;;;;;11.03;100.00;101866.69;1047708;28;20514;-55
2023/08/23 02:51:01;;;;;;;1.25;1.15;;;;;;;11.11;100.00;101858.53;1043611;28;20048;-54
2023/08/23 02:51:33;;;;;;;1.92;1.30;;;;;;;11.00;100.00;101864.41;1047198;28;20054;-54
2023/08/23 02:52:05;;;;;;;4.15;1.48;;;;;;;11.00;100.00;101861.75;1043652;28;20037;-55
2023/08/23 02:52:36;;;;;;;2.00;1.85;;;;;;;11.00;100.00;101865.22;1043528;28;20131;-55
2023/08/23 02:53:09;;;;;;;2.40;1.70;;;;;;;10.88;100.00;101863.28;1047293;28;20087;-53
2023/08/23 02:53:41;;;;;;;1.80;1.35;;;;;;;11.04;100.00;101869.16;1047526;28;20377;-53
2023/08/23 02:54:15;;;;;;;4.05;1.35;;;;;;;10.94;100.00;101867.81;1043190;28;20041;-51
2023/08/23 02:54:47;;;;;;;9.20;1.48;;;;;;;11.08;100.00;101864.25;1044065;28;20082;-54
2023/08/23 02:55:18;;;;;;;3.58;1.42;;;;;;;11.01;100.00;101864.22;1043626;28;20045;-55
2023/08/23 02:55:50;;;;;;;1.13;1.02;;;;;;;10.91;100.00;101860.22;1044391;28;20041;-55
2023/08/23 02:56:22;;;;;;;6.35;1.52;;;;;;;11.23;100.00;101862.31;1047541;28;20049;-52